sensor_id;sensor_type;location;lat;lon;timestamp;P1;durP1;ratioP1;P2;durP2;ratioP2
22318;SDS011;11327;52.334;9.506;2022-08-04T00:03:37;4.95;;;2.83;;
22318;SDS011;11327;52.334;9.506;2022-08-04T00:10:30;5.30;;;2.80;;
22318;SDS011;11327;52.334;9.506;2022-08-04T00:13:57;6.00;;;2.80;;
22318;SDS011;11327;52.334;9.506;2022-08-04T00:17:25;4.78;;;2.92;;
22318;SDS011;11327;52.334;9.506;2022-08-04T00:20:55;8.75;;;3.75;;
22318;SDS011;11327;52.334;9.506;2022-08-04T00:24:18;7.58;;;3.00;;
22318;SDS011;11327;52.334;9.506;2022-08-04T00:27:41;6.60;;;3.10;;
22318;SDS011;11327;52.334;9.506;2022-08-04T00:31:06;5.83;;;2.98;;
22318;SDS011;11327;52.334;9.506;2022-08-04T00:34:30;6.20;;;2.92;;
22318;SDS011;11327;52.334;9.506;2022-08-04T00:37:51;5.95;;;2.77;;
22318;SDS011;11327;52.334;9.506;2022-08-04T00:48:46;5.58;;;2.95;;
22318;SDS011;11327;52.334;9.506;2022-08-04T01:03:32;5.33;;;3.20;;
22318;SDS011;11327;52.334;9.506;2022-08-04T01:18:07;5.87;;;2.95;;
22318;SDS011;11327;52.334;9.506;2022-08-04T01:36:00;7.35;;;3.00;;
22318;SDS011;11327;52.334;9.506;2022-08-04T01:39:22;4.47;;;2.70;;
22318;SDS011;11327;52.334;9.506;2022-08-04T01:43:02;5.78;;;2.85;;
22318;SDS011;11327;52.334;9.506;2022-08-04T01:46:24;5.45;;;2.90;;
22318;SDS011;11327;52.334;9.506;2022-08-04T01:49:47;6.03;;;3.27;;
22318;SDS011;11327;52.334;9.506;2022-08-04T01:53:09;6.17;;;2.92;;
22318;SDS011;11327;52.334;9.506;2022-08-04T01:56:30;5.58;;;3.10;;
22318;SDS011;11327;52.334;9.506;2022-08-04T01:59:51;6.28;;;3.15;;
22318;SDS011;11327;52.334;9.506;2022-08-04T02:03:13;6.72;;;3.65;;
22318;SDS011;11327;52.334;9.506;2022-08-04T02:10:17;8.60;;;3.67;;
22318;SDS011;11327;52.334;9.506;2022-08-04T02:21:06;7.33;;;3.25;;
22318;SDS011;11327;52.334;9.506;2022-08-04T02:24:28;7.08;;;3.42;;
22318;SDS011;11327;52.334;9.506;2022-08-04T02:31:32;9.68;;;3.45;;
22318;SDS011;11327;52.334;9.506;2022-08-04T02:35:13;5.55;;;3.35;;
22318;SDS011;11327;52.334;9.506;2022-08-04T02:38:54;4.60;;;3.50;;
22318;SDS011;11327;52.334;9.506;2022-08-04T02:42:17;5.53;;;3.15;;
22318;SDS011;11327;52.334;9.506;2022-08-04T02:45:39;6.30;;;3.25;;
22318;SDS011;11327;52.334;9.506;2022-08-04T02:49:03;5.97;;;3.25;;
22318;SDS011;11327;52.334;9.506;2022-08-04T02:52:25;5.42;;;3.22;;
22318;SDS011;11327;52.334;9.506;2022-08-04T02:55:49;5.08;;;3.10;;
22318;SDS011;11327;52.334;9.506;2022-08-04T02:59:12;5.03;;;3.05;;
22318;SDS011;11327;52.334;9.506;2022-08-04T03:02:41;5.60;;;3.15;;
22318;SDS011;11327;52.334;9.506;2022-08-04T03:17:30;6.58;;;3.50;;
22318;SDS011;11327;52.334;9.506;2022-08-04T03:28:17;4.55;;;3.17;;
22318;SDS011;11327;52.334;9.506;2022-08-04T03:39:00;6.58;;;2.75;;
22318;SDS011;11327;52.334;9.506;2022-08-04T04:29:43;5.33;;;2.85;;
22318;SDS011;11327;52.334;9.506;2022-08-04T04:44:23;5.10;;;3.00;;
22318;SDS011;11327;52.334;9.506;2022-08-04T04:51:37;5.17;;;3.08;;
22318;SDS011;11327;52.334;9.506;2022-08-04T04:55:02;4.83;;;3.52;;
22318;SDS011;11327;52.334;9.506;2022-08-04T04:58:26;4.97;;;3.37;;
22318;SDS011;11327;52.334;9.506;2022-08-04T05:16:32;6.67;;;3.27;;
22318;SDS011;11327;52.334;9.506;2022-08-04T05:23:29;6.58;;;3.60;;
22318;SDS011;11327;52.334;9.506;2022-08-04T05:26:55;4.50;;;3.52;;
22318;SDS011;11327;52.334;9.506;2022-08-04T05:30:18;7.08;;;3.75;;
22318;SDS011;11327;52.334;9.506;2022-08-04T05:33:41;5.95;;;3.55;;
22318;SDS011;11327;52.334;9.506;2022-08-04T05:37:08;5.10;;;3.52;;
22318;SDS011;11327;52.334;9.506;2022-08-04T05:40:32;6.37;;;3.35;;
22318;SDS011;11327;52.334;9.506;2022-08-04T05:43:53;5.37;;;3.42;;
22318;SDS011;11327;52.334;9.506;2022-08-04T05:47:15;6.22;;;3.75;;
22318;SDS011;11327;52.334;9.506;2022-08-04T05:50:37;8.90;;;4.30;;
22318;SDS011;11327;52.334;9.506;2022-08-04T05:53:58;5.85;;;4.12;;
22318;SDS011;11327;52.334;9.506;2022-08-04T05:57:20;9.50;;;4.47;;
22318;SDS011;11327;52.334;9.506;2022-08-04T06:00:41;10.40;;;4.78;;
22318;SDS011;11327;52.334;9.506;2022-08-04T06:04:04;6.53;;;3.80;;
22318;SDS011;11327;52.334;9.506;2022-08-04T06:07:26;7.65;;;4.37;;
22318;SDS011;11327;52.334;9.506;2022-08-04T06:10:48;7.30;;;4.00;;
22318;SDS011;11327;52.334;9.506;2022-08-04T06:14:10;7.75;;;4.85;;
22318;SDS011;11327;52.334;9.506;2022-08-04T06:17:37;6.75;;;3.90;;
22318;SDS011;11327;52.334;9.506;2022-08-04T06:21:04;6.70;;;3.70;;
22318;SDS011;11327;52.334;9.506;2022-08-04T06:24:26;7.20;;;3.45;;
22318;SDS011;11327;52.334;9.506;2022-08-04T06:27:49;6.58;;;3.42;;
22318;SDS011;11327;52.334;9.506;2022-08-04T06:31:11;7.60;;;3.70;;
22318;SDS011;11327;52.334;9.506;2022-08-04T06:34:36;6.92;;;3.40;;
22318;SDS011;11327;52.334;9.506;2022-08-04T06:37:58;7.17;;;3.67;;
22318;SDS011;11327;52.334;9.506;2022-08-04T06:41:20;6.22;;;3.50;;
22318;SDS011;11327;52.334;9.506;2022-08-04T06:44:42;7.85;;;3.40;;
22318;SDS011;11327;52.334;9.506;2022-08-04T06:48:05;5.35;;;3.10;;
22318;SDS011;11327;52.334;9.506;2022-08-04T06:51:27;5.75;;;3.17;;
22318;SDS011;11327;52.334;9.506;2022-08-04T06:54:50;4.97;;;2.95;;
22318;SDS011;11327;52.334;9.506;2022-08-04T06:58:12;5.67;;;3.02;;
22318;SDS011;11327;52.334;9.506;2022-08-04T07:01:35;4.72;;;3.05;;
22318;SDS011;11327;52.334;9.506;2022-08-04T07:04:57;8.03;;;3.15;;
22318;SDS011;11327;52.334;9.506;2022-08-04T07:08:18;4.90;;;2.85;;
22318;SDS011;11327;52.334;9.506;2022-08-04T07:11:40;5.50;;;3.05;;
22318;SDS011;11327;52.334;9.506;2022-08-04T07:15:03;4.22;;;2.72;;
22318;SDS011;11327;52.334;9.506;2022-08-04T07:18:25;6.22;;;2.92;;
22318;SDS011;11327;52.334;9.506;2022-08-04T07:21:46;4.97;;;2.80;;
22318;SDS011;11327;52.334;9.506;2022-08-04T07:25:08;2.92;;;2.58;;
22318;SDS011;11327;52.334;9.506;2022-08-04T07:28:32;5.35;;;2.98;;
22318;SDS011;11327;52.334;9.506;2022-08-04T07:31:56;5.30;;;2.70;;
22318;SDS011;11327;52.334;9.506;2022-08-04T07:35:18;4.33;;;2.75;;
22318;SDS011;11327;52.334;9.506;2022-08-04T07:38:41;3.72;;;2.60;;
22318;SDS011;11327;52.334;9.506;2022-08-04T07:42:03;4.15;;;2.60;;
22318;SDS011;11327;52.334;9.506;2022-08-04T07:45:25;3.52;;;3.08;;
22318;SDS011;11327;52.334;9.506;2022-08-04T07:48:45;3.67;;;2.75;;
22318;SDS011;11327;52.334;9.506;2022-08-04T07:52:07;3.80;;;2.98;;
22318;SDS011;11327;52.334;9.506;2022-08-04T07:55:29;4.25;;;2.75;;
22318;SDS011;11327;52.334;9.506;2022-08-04T07:58:50;4.30;;;2.75;;
22318;SDS011;11327;52.334;9.506;2022-08-04T08:02:12;3.50;;;2.67;;
22318;SDS011;11327;52.334;9.506;2022-08-04T08:05:34;7.80;;;3.00;;
22318;SDS011;11327;52.334;9.506;2022-08-04T08:08:55;3.95;;;2.85;;
22318;SDS011;11327;52.334;9.506;2022-08-04T08:12:17;4.87;;;2.80;;
22318;SDS011;11327;52.334;9.506;2022-08-04T08:15:39;4.15;;;2.80;;
22318;SDS011;11327;52.334;9.506;2022-08-04T08:19:01;3.17;;;2.60;;
22318;SDS011;11327;52.334;9.506;2022-08-04T08:22:22;3.45;;;2.72;;
22318;SDS011;11327;52.334;9.506;2022-08-04T08:25:43;2.85;;;2.65;;
22318;SDS011;11327;52.334;9.506;2022-08-04T08:29:04;5.20;;;2.83;;
22318;SDS011;11327;52.334;9.506;2022-08-04T08:32:26;5.00;;;2.87;;
22318;SDS011;11327;52.334;9.506;2022-08-04T08:35:49;4.30;;;2.90;;
22318;SDS011;11327;52.334;9.506;2022-08-04T08:39:20;4.35;;;2.50;;
22318;SDS011;11327;52.334;9.506;2022-08-04T08:56:58;2.90;;;2.70;;
22318;SDS011;11327;52.334;9.506;2022-08-04T09:00:44;4.97;;;2.47;;
22318;SDS011;11327;52.334;9.506;2022-08-04T09:04:38;2.90;;;2.05;;
22318;SDS011;11327;52.334;9.506;2022-08-04T09:08:28;4.28;;;2.65;;
22318;SDS011;11327;52.334;9.506;2022-08-04T09:12:14;4.10;;;2.40;;
22318;SDS011;11327;52.334;9.506;2022-08-04T09:19:43;5.62;;;2.83;;
22318;SDS011;11327;52.334;9.506;2022-08-04T09:26:49;7.47;;;2.90;;
22318;SDS011;11327;52.334;9.506;2022-08-04T09:30:12;3.33;;;2.55;;
22318;SDS011;11327;52.334;9.506;2022-08-04T09:37:42;5.33;;;2.70;;
22318;SDS011;11327;52.334;9.506;2022-08-04T09:44:45;2.87;;;2.62;;
22318;SDS011;11327;52.334;9.506;2022-08-04T09:48:28;3.22;;;2.70;;
22318;SDS011;11327;52.334;9.506;2022-08-04T09:52:28;3.15;;;2.62;;
22318;SDS011;11327;52.334;9.506;2022-08-04T10:02:54;3.10;;;2.90;;
22318;SDS011;11327;52.334;9.506;2022-08-04T10:14:31;3.05;;;2.42;;
22318;SDS011;11327;52.334;9.506;2022-08-04T10:17:25;2.90;;;2.37;;
22318;SDS011;11327;52.334;9.506;2022-08-04T10:21:03;3.02;;;2.52;;
22318;SDS011;11327;52.334;9.506;2022-08-04T10:28:09;3.00;;;2.62;;
22318;SDS011;11327;52.334;9.506;2022-08-04T10:31:33;2.60;;;2.40;;
22318;SDS011;11327;52.334;9.506;2022-08-04T10:35:09;3.30;;;2.50;;
22318;SDS011;11327;52.334;9.506;2022-08-04T10:38:36;2.70;;;2.50;;
22318;SDS011;11327;52.334;9.506;2022-08-04T10:42:26;3.33;;;2.50;;
22318;SDS011;11327;52.334;9.506;2022-08-04T10:45:51;2.83;;;2.40;;
22318;SDS011;11327;52.334;9.506;2022-08-04T10:53:00;2.67;;;2.42;;
22318;SDS011;11327;52.334;9.506;2022-08-04T10:56:34;2.98;;;2.35;;
22318;SDS011;11327;52.334;9.506;2022-08-04T11:03:33;3.77;;;2.55;;
22318;SDS011;11327;52.334;9.506;2022-08-04T11:07:00;3.15;;;2.58;;
22318;SDS011;11327;52.334;9.506;2022-08-04T11:10:22;3.52;;;2.42;;
22318;SDS011;11327;52.334;9.506;2022-08-04T11:13:48;3.02;;;2.60;;
22318;SDS011;11327;52.334;9.506;2022-08-04T11:17:27;3.25;;;2.75;;
22318;SDS011;11327;52.334;9.506;2022-08-04T11:28:12;5.17;;;2.40;;
22318;SDS011;11327;52.334;9.506;2022-08-04T11:31:47;2.47;;;2.20;;
22318;SDS011;11327;52.334;9.506;2022-08-04T11:35:11;2.52;;;2.33;;
22318;SDS011;11327;52.334;9.506;2022-08-04T11:45:53;2.30;;;2.10;;
22318;SDS011;11327;52.334;9.506;2022-08-04T11:52:47;4.17;;;2.30;;
22318;SDS011;11327;52.334;9.506;2022-08-04T11:56:12;3.35;;;2.10;;
22318;SDS011;11327;52.334;9.506;2022-08-04T11:59:35;3.17;;;2.17;;
22318;SDS011;11327;52.334;9.506;2022-08-04T12:03:00;2.95;;;2.40;;
22318;SDS011;11327;52.334;9.506;2022-08-04T12:13:45;3.10;;;2.22;;
22318;SDS011;11327;52.334;9.506;2022-08-04T12:17:09;2.42;;;2.22;;
22318;SDS011;11327;52.334;9.506;2022-08-04T12:20:33;5.12;;;2.10;;
22318;SDS011;11327;52.334;9.506;2022-08-04T12:23:57;3.58;;;2.40;;
22318;SDS011;11327;52.334;9.506;2022-08-04T12:27:32;4.15;;;2.25;;
22318;SDS011;11327;52.334;9.506;2022-08-04T12:31:03;2.42;;;2.22;;
22318;SDS011;11327;52.334;9.506;2022-08-04T12:34:38;2.90;;;2.30;;
22318;SDS011;11327;52.334;9.506;2022-08-04T12:38:04;3.40;;;2.10;;
22318;SDS011;11327;52.334;9.506;2022-08-04T12:41:27;3.55;;;2.58;;
22318;SDS011;11327;52.334;9.506;2022-08-04T12:44:51;2.42;;;2.10;;
22318;SDS011;11327;52.334;9.506;2022-08-04T12:48:13;3.17;;;2.10;;
22318;SDS011;11327;52.334;9.506;2022-08-04T12:51:39;3.20;;;2.50;;
22318;SDS011;11327;52.334;9.506;2022-08-04T12:55:01;2.58;;;1.90;;
22318;SDS011;11327;52.334;9.506;2022-08-04T12:58:26;4.22;;;1.75;;
22318;SDS011;11327;52.334;9.506;2022-08-04T13:01:48;4.60;;;2.30;;
22318;SDS011;11327;52.334;9.506;2022-08-04T13:05:10;3.33;;;1.95;;
22318;SDS011;11327;52.334;9.506;2022-08-04T13:08:35;3.47;;;1.77;;
22318;SDS011;11327;52.334;9.506;2022-08-04T13:11:59;5.20;;;2.10;;
22318;SDS011;11327;52.334;9.506;2022-08-04T13:15:26;2.33;;;1.72;;
22318;SDS011;11327;52.334;9.506;2022-08-04T13:18:48;2.85;;;1.85;;
22318;SDS011;11327;52.334;9.506;2022-08-04T13:22:10;3.87;;;1.90;;
22318;SDS011;11327;52.334;9.506;2022-08-04T13:25:32;5.90;;;1.72;;
22318;SDS011;11327;52.334;9.506;2022-08-04T13:28:57;3.12;;;1.70;;
22318;SDS011;11327;52.334;9.506;2022-08-04T13:32:20;2.45;;;1.70;;
22318;SDS011;11327;52.334;9.506;2022-08-04T13:35:44;3.08;;;1.70;;
22318;SDS011;11327;52.334;9.506;2022-08-04T13:39:12;4.60;;;1.80;;
22318;SDS011;11327;52.334;9.506;2022-08-04T13:42:31;5.25;;;2.10;;
22318;SDS011;11327;52.334;9.506;2022-08-04T13:45:58;4.47;;;1.70;;
22318;SDS011;11327;52.334;9.506;2022-08-04T13:49:21;3.77;;;1.67;;
22318;SDS011;11327;52.334;9.506;2022-08-04T13:52:43;3.65;;;1.75;;
22318;SDS011;11327;52.334;9.506;2022-08-04T13:56:06;3.45;;;1.90;;
22318;SDS011;11327;52.334;9.506;2022-08-04T13:59:32;5.33;;;2.10;;
22318;SDS011;11327;52.334;9.506;2022-08-04T14:02:58;2.90;;;1.75;;
22318;SDS011;11327;52.334;9.506;2022-08-04T14:09:49;2.95;;;1.70;;
22318;SDS011;11327;52.334;9.506;2022-08-04T14:13:10;3.62;;;1.72;;
22318;SDS011;11327;52.334;9.506;2022-08-04T14:16:31;3.02;;;1.80;;
22318;SDS011;11327;52.334;9.506;2022-08-04T14:23:16;5.50;;;1.70;;
22318;SDS011;11327;52.334;9.506;2022-08-04T14:26:37;5.30;;;1.85;;
22318;SDS011;11327;52.334;9.506;2022-08-04T14:29:58;4.75;;;2.00;;
22318;SDS011;11327;52.334;9.506;2022-08-04T14:33:19;4.08;;;2.00;;
22318;SDS011;11327;52.334;9.506;2022-08-04T14:36:42;4.10;;;1.92;;
22318;SDS011;11327;52.334;9.506;2022-08-04T14:40:04;3.98;;;2.00;;
22318;SDS011;11327;52.334;9.506;2022-08-04T14:43:26;3.08;;;1.92;;
22318;SDS011;11327;52.334;9.506;2022-08-04T14:46:49;3.02;;;2.00;;
22318;SDS011;11327;52.334;9.506;2022-08-04T14:50:12;3.72;;;2.10;;
22318;SDS011;11327;52.334;9.506;2022-08-04T14:53:34;3.37;;;1.82;;
22318;SDS011;11327;52.334;9.506;2022-08-04T14:57:01;2.60;;;1.70;;
22318;SDS011;11327;52.334;9.506;2022-08-04T15:00:30;3.37;;;1.75;;
22318;SDS011;11327;52.334;9.506;2022-08-04T15:03:48;3.15;;;1.67;;
22318;SDS011;11327;52.334;9.506;2022-08-04T15:07:10;2.35;;;1.70;;
22318;SDS011;11327;52.334;9.506;2022-08-04T15:10:32;2.08;;;1.87;;
22318;SDS011;11327;52.334;9.506;2022-08-04T15:13:54;3.65;;;2.02;;
22318;SDS011;11327;52.334;9.506;2022-08-04T15:17:16;3.70;;;1.72;;
22318;SDS011;11327;52.334;9.506;2022-08-04T15:20:38;4.10;;;1.60;;
22318;SDS011;11327;52.334;9.506;2022-08-04T15:24:01;4.33;;;1.80;;
22318;SDS011;11327;52.334;9.506;2022-08-04T15:27:24;6.40;;;2.55;;
22318;SDS011;11327;52.334;9.506;2022-08-04T15:30:47;12.20;;;2.80;;
22318;SDS011;11327;52.334;9.506;2022-08-04T15:34:10;12.23;;;2.92;;
22318;SDS011;11327;52.334;9.506;2022-08-04T15:37:38;12.43;;;3.10;;
22318;SDS011;11327;52.334;9.506;2022-08-04T15:41:13;12.78;;;2.90;;
22318;SDS011;11327;52.334;9.506;2022-08-04T15:51:36;7.12;;;2.52;;
22318;SDS011;11327;52.334;9.506;2022-08-04T16:02:29;6.45;;;2.37;;
22318;SDS011;11327;52.334;9.506;2022-08-04T16:05:56;4.60;;;2.10;;
22318;SDS011;11327;52.334;9.506;2022-08-04T16:09:21;6.20;;;2.10;;
22318;SDS011;11327;52.334;9.506;2022-08-04T16:12:51;6.20;;;2.00;;
22318;SDS011;11327;52.334;9.506;2022-08-04T16:16:12;4.85;;;1.90;;
22318;SDS011;11327;52.334;9.506;2022-08-04T16:23:24;2.77;;;2.00;;
22318;SDS011;11327;52.334;9.506;2022-08-04T16:26:57;5.17;;;2.10;;
22318;SDS011;11327;52.334;9.506;2022-08-04T16:30:21;3.33;;;1.98;;
22318;SDS011;11327;52.334;9.506;2022-08-04T16:33:44;3.17;;;1.90;;
22318;SDS011;11327;52.334;9.506;2022-08-04T16:37:06;4.58;;;1.80;;
22318;SDS011;11327;52.334;9.506;2022-08-04T16:40:35;4.65;;;1.90;;
22318;SDS011;11327;52.334;9.506;2022-08-04T16:44:27;5.35;;;1.45;;
22318;SDS011;11327;52.334;9.506;2022-08-04T16:51:12;3.25;;;1.98;;
22318;SDS011;11327;52.334;9.506;2022-08-04T16:54:34;2.33;;;1.87;;
22318;SDS011;11327;52.334;9.506;2022-08-04T16:57:56;2.83;;;1.82;;
22318;SDS011;11327;52.334;9.506;2022-08-04T17:01:20;2.70;;;2.10;;
22318;SDS011;11327;52.334;9.506;2022-08-04T17:04:43;3.75;;;1.80;;
22318;SDS011;11327;52.334;9.506;2022-08-04T17:08:04;2.60;;;1.60;;
22318;SDS011;11327;52.334;9.506;2022-08-04T17:11:31;5.78;;;2.35;;
22318;SDS011;11327;52.334;9.506;2022-08-04T17:14:52;2.92;;;2.15;;
22318;SDS011;11327;52.334;9.506;2022-08-04T17:18:14;3.95;;;1.90;;
22318;SDS011;11327;52.334;9.506;2022-08-04T17:21:39;4.12;;;1.85;;
22318;SDS011;11327;52.334;9.506;2022-08-04T17:25:00;2.95;;;2.00;;
22318;SDS011;11327;52.334;9.506;2022-08-04T17:28:22;3.02;;;1.77;;
22318;SDS011;11327;52.334;9.506;2022-08-04T17:31:43;5.90;;;1.80;;
22318;SDS011;11327;52.334;9.506;2022-08-04T17:35:05;3.30;;;1.90;;
22318;SDS011;11327;52.334;9.506;2022-08-04T17:38:31;2.50;;;1.82;;
22318;SDS011;11327;52.334;9.506;2022-08-04T17:41:55;5.70;;;2.02;;
22318;SDS011;11327;52.334;9.506;2022-08-04T17:45:16;3.62;;;1.90;;
22318;SDS011;11327;52.334;9.506;2022-08-04T17:48:39;2.50;;;1.92;;
22318;SDS011;11327;52.334;9.506;2022-08-04T17:52:01;4.75;;;2.60;;
22318;SDS011;11327;52.334;9.506;2022-08-04T17:55:23;4.90;;;2.27;;
22318;SDS011;11327;52.334;9.506;2022-08-04T17:58:44;5.65;;;1.92;;
22318;SDS011;11327;52.334;9.506;2022-08-04T18:02:05;2.62;;;2.00;;
22318;SDS011;11327;52.334;9.506;2022-08-04T18:05:26;3.65;;;1.80;;
22318;SDS011;11327;52.334;9.506;2022-08-04T18:08:54;2.83;;;2.37;;
22318;SDS011;11327;52.334;9.506;2022-08-04T18:16:06;3.45;;;1.95;;
22318;SDS011;11327;52.334;9.506;2022-08-04T18:19:25;2.00;;;1.67;;
22318;SDS011;11327;52.334;9.506;2022-08-04T18:22:46;4.12;;;2.15;;
22318;SDS011;11327;52.334;9.506;2022-08-04T18:26:08;4.22;;;2.00;;
22318;SDS011;11327;52.334;9.506;2022-08-04T18:29:29;2.45;;;2.00;;
22318;SDS011;11327;52.334;9.506;2022-08-04T18:32:51;3.65;;;1.65;;
22318;SDS011;11327;52.334;9.506;2022-08-04T18:36:14;3.92;;;2.05;;
22318;SDS011;11327;52.334;9.506;2022-08-04T18:39:35;4.67;;;1.90;;
22318;SDS011;11327;52.334;9.506;2022-08-04T18:42:56;4.03;;;2.10;;
22318;SDS011;11327;52.334;9.506;2022-08-04T18:46:17;4.95;;;2.22;;
22318;SDS011;11327;52.334;9.506;2022-08-04T18:49:38;3.80;;;2.25;;
22318;SDS011;11327;52.334;9.506;2022-08-04T18:52:59;6.22;;;2.55;;
22318;SDS011;11327;52.334;9.506;2022-08-04T18:56:20;5.08;;;2.22;;
22318;SDS011;11327;52.334;9.506;2022-08-04T18:59:41;3.25;;;2.20;;
22318;SDS011;11327;52.334;9.506;2022-08-04T19:03:03;6.10;;;2.55;;
22318;SDS011;11327;52.334;9.506;2022-08-04T19:06:24;3.25;;;2.02;;
22318;SDS011;11327;52.334;9.506;2022-08-04T19:09:45;3.00;;;2.00;;
22318;SDS011;11327;52.334;9.506;2022-08-04T19:13:06;4.60;;;2.95;;
22318;SDS011;11327;52.334;9.506;2022-08-04T19:16:28;6.87;;;2.50;;
22318;SDS011;11327;52.334;9.506;2022-08-04T19:19:50;6.60;;;2.60;;
22318;SDS011;11327;52.334;9.506;2022-08-04T19:23:11;9.20;;;2.70;;
22318;SDS011;11327;52.334;9.506;2022-08-04T19:26:32;4.47;;;2.42;;
22318;SDS011;11327;52.334;9.506;2022-08-04T19:29:55;5.65;;;2.58;;
22318;SDS011;11327;52.334;9.506;2022-08-04T19:33:16;8.23;;;2.80;;
22318;SDS011;11327;52.334;9.506;2022-08-04T19:36:37;4.40;;;2.65;;
22318;SDS011;11327;52.334;9.506;2022-08-04T19:39:58;4.22;;;2.42;;
22318;SDS011;11327;52.334;9.506;2022-08-04T19:43:19;5.60;;;2.60;;
22318;SDS011;11327;52.334;9.506;2022-08-04T19:46:40;5.72;;;2.77;;
22318;SDS011;11327;52.334;9.506;2022-08-04T19:50:04;6.37;;;3.10;;
22318;SDS011;11327;52.334;9.506;2022-08-04T19:53:25;7.40;;;3.00;;
22318;SDS011;11327;52.334;9.506;2022-08-04T19:56:47;4.80;;;2.90;;
22318;SDS011;11327;52.334;9.506;2022-08-04T20:00:08;4.65;;;3.15;;
22318;SDS011;11327;52.334;9.506;2022-08-04T20:03:31;6.40;;;3.10;;
22318;SDS011;11327;52.334;9.506;2022-08-04T20:06:52;4.72;;;3.00;;
22318;SDS011;11327;52.334;9.506;2022-08-04T20:10:14;6.92;;;3.10;;
22318;SDS011;11327;52.334;9.506;2022-08-04T20:13:35;7.08;;;3.00;;
22318;SDS011;11327;52.334;9.506;2022-08-04T20:16:56;6.72;;;3.27;;
22318;SDS011;11327;52.334;9.506;2022-08-04T20:20:18;4.90;;;2.52;;
22318;SDS011;11327;52.334;9.506;2022-08-04T20:23:39;5.85;;;3.50;;
22318;SDS011;11327;52.334;9.506;2022-08-04T20:27:00;5.17;;;2.60;;
22318;SDS011;11327;52.334;9.506;2022-08-04T20:30:22;5.20;;;2.80;;
22318;SDS011;11327;52.334;9.506;2022-08-04T20:33:43;5.83;;;2.80;;
22318;SDS011;11327;52.334;9.506;2022-08-04T20:37:04;4.58;;;2.40;;
22318;SDS011;11327;52.334;9.506;2022-08-04T20:40:26;5.20;;;2.60;;
22318;SDS011;11327;52.334;9.506;2022-08-04T20:43:47;4.92;;;2.62;;
22318;SDS011;11327;52.334;9.506;2022-08-04T20:47:08;3.87;;;2.70;;
22318;SDS011;11327;52.334;9.506;2022-08-04T20:50:29;5.40;;;2.60;;
22318;SDS011;11327;52.334;9.506;2022-08-04T20:53:50;4.90;;;2.30;;
22318;SDS011;11327;52.334;9.506;2022-08-04T20:57:11;3.83;;;2.08;;
22318;SDS011;11327;52.334;9.506;2022-08-04T21:00:32;3.40;;;2.30;;
22318;SDS011;11327;52.334;9.506;2022-08-04T21:03:53;3.80;;;2.10;;
22318;SDS011;11327;52.334;9.506;2022-08-04T21:07:33;4.42;;;2.20;;
22318;SDS011;11327;52.334;9.506;2022-08-04T21:10:54;3.50;;;2.15;;
22318;SDS011;11327;52.334;9.506;2022-08-04T21:14:15;4.62;;;2.10;;
22318;SDS011;11327;52.334;9.506;2022-08-04T21:17:36;3.62;;;2.00;;
22318;SDS011;11327;52.334;9.506;2022-08-04T21:20:57;5.42;;;2.25;;
22318;SDS011;11327;52.334;9.506;2022-08-04T21:24:18;4.95;;;1.90;;
22318;SDS011;11327;52.334;9.506;2022-08-04T21:27:42;4.97;;;2.02;;
22318;SDS011;11327;52.334;9.506;2022-08-04T21:31:03;4.80;;;2.20;;
22318;SDS011;11327;52.334;9.506;2022-08-04T21:34:24;2.92;;;1.77;;
22318;SDS011;11327;52.334;9.506;2022-08-04T21:37:45;3.30;;;1.87;;
22318;SDS011;11327;52.334;9.506;2022-08-04T21:41:06;3.52;;;1.80;;
22318;SDS011;11327;52.334;9.506;2022-08-04T21:44:28;3.50;;;1.75;;
22318;SDS011;11327;52.334;9.506;2022-08-04T21:47:49;3.65;;;1.62;;
22318;SDS011;11327;52.334;9.506;2022-08-04T21:51:17;3.47;;;1.85;;
22318;SDS011;11327;52.334;9.506;2022-08-04T21:54:40;1.98;;;1.47;;
22318;SDS011;11327;52.334;9.506;2022-08-04T21:58:01;4.35;;;1.52;;
22318;SDS011;11327;52.334;9.506;2022-08-04T22:01:22;3.58;;;1.77;;
22318;SDS011;11327;52.334;9.506;2022-08-04T22:04:43;3.60;;;1.65;;
22318;SDS011;11327;52.334;9.506;2022-08-04T22:08:04;3.45;;;1.70;;
22318;SDS011;11327;52.334;9.506;2022-08-04T22:11:29;2.95;;;2.22;;
22318;SDS011;11327;52.334;9.506;2022-08-04T22:14:52;3.95;;;1.90;;
22318;SDS011;11327;52.334;9.506;2022-08-04T22:18:13;4.08;;;2.05;;
22318;SDS011;11327;52.334;9.506;2022-08-04T22:21:34;3.55;;;2.00;;
22318;SDS011;11327;52.334;9.506;2022-08-04T22:24:58;4.05;;;2.20;;
22318;SDS011;11327;52.334;9.506;2022-08-04T22:28:19;4.12;;;1.90;;
22318;SDS011;11327;52.334;9.506;2022-08-04T22:31:45;3.62;;;2.02;;
22318;SDS011;11327;52.334;9.506;2022-08-04T22:35:03;4.47;;;1.98;;
22318;SDS011;11327;52.334;9.506;2022-08-04T22:38:25;3.50;;;2.05;;
22318;SDS011;11327;52.334;9.506;2022-08-04T22:41:46;6.37;;;2.15;;
22318;SDS011;11327;52.334;9.506;2022-08-04T22:45:08;4.62;;;2.30;;
22318;SDS011;11327;52.334;9.506;2022-08-04T22:48:30;2.55;;;1.92;;
22318;SDS011;11327;52.334;9.506;2022-08-04T22:51:56;5.78;;;2.40;;
22318;SDS011;11327;52.334;9.506;2022-08-04T22:55:17;4.28;;;2.52;;
22318;SDS011;11327;52.334;9.506;2022-08-04T22:58:39;3.12;;;2.10;;
22318;SDS011;11327;52.334;9.506;2022-08-04T23:02:01;5.62;;;2.67;;
22318;SDS011;11327;52.334;9.506;2022-08-04T23:05:22;5.40;;;2.25;;
22318;SDS011;11327;52.334;9.506;2022-08-04T23:08:43;5.78;;;2.62;;
22318;SDS011;11327;52.334;9.506;2022-08-04T23:12:05;5.33;;;2.47;;
22318;SDS011;11327;52.334;9.506;2022-08-04T23:15:26;6.33;;;2.92;;
22318;SDS011;11327;52.334;9.506;2022-08-04T23:18:47;5.80;;;2.50;;
22318;SDS011;11327;52.334;9.506;2022-08-04T23:22:08;5.92;;;2.90;;
22318;SDS011;11327;52.334;9.506;2022-08-04T23:25:29;4.97;;;3.10;;
22318;SDS011;11327;52.334;9.506;2022-08-04T23:28:50;7.87;;;3.00;;
22318;SDS011;11327;52.334;9.506;2022-08-04T23:32:11;5.15;;;2.80;;
22318;SDS011;11327;52.334;9.506;2022-08-04T23:35:32;5.65;;;3.00;;
22318;SDS011;11327;52.334;9.506;2022-08-04T23:38:53;6.75;;;3.20;;
22318;SDS011;11327;52.334;9.506;2022-08-04T23:42:14;7.35;;;3.40;;
22318;SDS011;11327;52.334;9.506;2022-08-04T23:45:35;6.45;;;3.70;;
22318;SDS011;11327;52.334;9.506;2022-08-04T23:48:56;6.40;;;3.37;;
22318;SDS011;11327;52.334;9.506;2022-08-04T23:52:17;7.65;;;4.10;;
22318;SDS011;11327;52.334;9.506;2022-08-04T23:55:38;9.68;;;5.00;;
22318;SDS011;11327;52.334;9.506;2022-08-04T23:58:59;11.75;;;5.70;;
